createdAt,value
2022-09-07T00:01:28.153Z,18.40
2022-09-07T00:06:34.610Z,18.00
2022-09-07T00:11:37.892Z,18.10
2022-09-07T00:16:42.707Z,18.40
2022-09-07T00:21:46.349Z,18.30
2022-09-07T00:26:49.639Z,18.30
2022-09-07T00:31:54.540Z,18.20
2022-09-07T00:36:57.830Z,18.30
2022-09-07T00:42:01.481Z,18.40
2022-09-07T00:47:07.481Z,18.30
2022-09-07T00:52:12.453Z,18.20
2022-09-07T00:57:15.950Z,18.00
2022-09-07T01:02:21.321Z,18.10
2022-09-07T01:07:25.166Z,18.00
2022-09-07T01:12:28.455Z,17.90
2022-09-07T01:17:46.678Z,17.90
2022-09-07T01:23:18.850Z,17.70
2022-09-07T01:28:26.594Z,17.60
2022-09-07T01:33:44.387Z,17.70
2022-09-07T01:38:49.284Z,17.70
2022-09-07T01:44:00.533Z,17.70
2022-09-07T01:49:10.912Z,17.60
2022-09-07T01:54:19.986Z,17.60
2022-09-07T01:59:30.792Z,17.40
2022-09-07T02:04:38.694Z,17.40
2022-09-07T02:09:48.517Z,17.50
2022-09-07T02:14:57.937Z,17.30
2022-09-07T02:20:07.946Z,17.40
2022-09-07T02:25:15.581Z,17.40
2022-09-07T02:30:20.282Z,17.50
2022-09-07T02:35:23.751Z,17.30
2022-09-07T02:40:27.110Z,17.30
2022-09-07T02:45:39.278Z,17.10
2022-09-07T02:51:03.700Z,17.00
2022-09-07T02:56:19.418Z,17.00
2022-09-07T03:01:33.238Z,16.90
2022-09-07T03:06:41.029Z,16.70
2022-09-07T03:11:44.392Z,16.70
2022-09-07T03:16:50.531Z,17.10
2022-09-07T03:21:53.869Z,17.00
2022-09-07T03:26:57.458Z,17.00
2022-09-07T03:32:02.121Z,17.10
2022-09-07T03:37:05.447Z,17.10
2022-09-07T03:42:08.949Z,17.10
2022-09-07T03:47:14.028Z,17.10
2022-09-07T03:52:17.317Z,16.70
2022-09-07T03:57:21.175Z,16.60
2022-09-07T04:02:25.905Z,16.70
2022-09-07T04:07:29.218Z,17.60
2022-09-07T04:12:32.539Z,17.00
2022-09-07T04:17:37.192Z,17.40
2022-09-07T04:22:40.511Z,17.20
2022-09-07T04:27:43.974Z,17.20
2022-09-07T04:32:49.172Z,17.20
2022-09-07T04:37:52.462Z,17.10
2022-09-07T04:42:55.738Z,17.00
2022-09-07T04:48:00.411Z,16.90
2022-09-07T04:53:03.658Z,16.80
2022-09-07T04:58:07.306Z,16.50
2022-09-07T05:03:12.168Z,16.10
2022-09-07T05:08:16.434Z,16.20
2022-09-07T05:13:19.799Z,16.50
2022-09-07T05:18:24.569Z,16.40
2022-09-07T05:23:27.895Z,16.80
2022-09-07T05:28:31.356Z,16.90
2022-09-07T05:39:00.728Z,17.30
2022-09-07T05:49:29.469Z,17.80
2022-09-07T05:54:32.735Z,17.40
2022-09-07T05:59:36.273Z,17.70
2022-09-07T06:04:40.903Z,17.80
2022-09-07T06:15:08.684Z,17.30
2022-09-07T06:20:14.006Z,17.80
2022-09-07T06:25:17.408Z,18.10
2022-09-07T06:30:20.978Z,18.30
2022-09-07T06:35:26.044Z,18.60
2022-09-07T06:40:29.418Z,18.90
2022-09-07T06:45:32.705Z,18.50
2022-09-07T06:50:37.446Z,18.90
2022-09-07T06:55:45.007Z,18.50
2022-09-07T07:00:48.458Z,18.50
2022-09-07T07:05:54.771Z,18.30
2022-09-07T07:11:02.288Z,18.50
2022-09-07T07:16:07.231Z,19.10
2022-09-07T07:21:13.336Z,19.20
2022-09-07T07:26:18.971Z,19.40
2022-09-07T07:31:24.975Z,20.10
2022-09-07T07:36:29.622Z,20.00
2022-09-07T07:46:57.160Z,22.40
2022-09-07T07:57:25.463Z,23.10
2022-09-07T08:02:29.007Z,23.50
2022-09-07T08:07:33.629Z,23.30
2022-09-07T08:12:37.152Z,23.70
2022-09-07T08:17:40.894Z,24.50
2022-09-07T08:22:45.492Z,25.40
2022-09-07T08:27:48.940Z,29.00
2022-09-07T08:32:52.250Z,22.60
2022-09-07T08:37:56.897Z,23.80
2022-09-07T08:43:10.945Z,23.50
2022-09-07T08:48:18.508Z,23.10
2022-09-07T08:53:25.149Z,22.90
2022-09-07T08:58:50.678Z,23.40
2022-09-07T09:09:28.068Z,23.60
2022-09-07T09:14:42.706Z,24.10
2022-09-07T09:20:00.291Z,24.00
2022-09-07T09:25:16.632Z,24.80
2022-09-07T09:30:21.405Z,25.30
2022-09-07T09:35:30.268Z,24.70
2022-09-07T09:40:36.477Z,24.50
2022-09-07T09:56:42.766Z,26.60
2022-09-07T10:07:22.056Z,26.40
2022-09-07T10:12:32.183Z,26.30
2022-09-07T10:17:37.736Z,27.10
2022-09-07T10:22:41.009Z,26.30
2022-09-07T10:27:46.859Z,25.80
2022-09-07T10:33:02.379Z,25.70
2022-09-07T10:38:16.285Z,26.00
2022-09-07T10:43:31.241Z,24.90
2022-09-07T10:48:42.065Z,25.60
2022-09-07T11:05:05.023Z,25.70
2022-09-07T11:10:17.345Z,25.90
2022-09-07T11:15:28.531Z,26.10
2022-09-07T11:20:35.582Z,26.30
2022-09-07T11:25:46.692Z,25.70
2022-09-07T11:31:00.268Z,25.90
2022-09-07T11:36:12.199Z,25.90
2022-09-07T11:41:25.597Z,26.40
2022-09-07T11:46:37.085Z,26.00
2022-09-07T11:51:44.058Z,26.00
2022-09-07T11:56:53.656Z,26.10
2022-09-07T12:02:16.998Z,27.70
2022-09-07T12:07:42.996Z,26.80
2022-09-07T12:13:07.899Z,28.00
2022-09-07T12:18:27.935Z,29.60
2022-09-07T12:23:32.646Z,28.60
2022-09-07T12:29:07.475Z,29.00
2022-09-07T12:34:47.447Z,29.70
2022-09-07T12:39:50.753Z,27.30
2022-09-07T12:45:38.385Z,28.80
2022-09-07T12:50:51.437Z,31.60
2022-09-07T12:56:17.458Z,30.10
2022-09-07T13:01:38.305Z,30.60
2022-09-07T13:07:06.979Z,31.20
2022-09-07T13:17:57.354Z,30.20
2022-09-07T13:23:24.580Z,30.30
2022-09-07T13:28:37.205Z,30.70
2022-09-07T13:33:47.482Z,29.80
2022-09-07T13:38:53.094Z,29.80
2022-09-07T13:44:00.821Z,31.20
2022-09-07T13:49:14.134Z,30.30
2022-09-07T13:54:27.675Z,31.20
2022-09-07T13:59:34.960Z,30.80
2022-09-07T14:04:41.404Z,31.00
2022-09-07T14:09:46.007Z,30.80
2022-09-07T14:15:09.489Z,30.60
2022-09-07T14:20:15.636Z,30.70
2022-09-07T14:25:22.240Z,31.00
2022-09-07T14:30:29.215Z,32.50
2022-09-07T14:35:35.348Z,31.20
2022-09-07T14:40:40.274Z,31.50
2022-09-07T14:45:43.674Z,32.20
2022-09-07T14:51:01.028Z,31.80
2022-09-07T14:56:20.899Z,31.90
2022-09-07T15:01:41.566Z,31.50
2022-09-07T15:07:02.306Z,33.70
2022-09-07T15:12:38.365Z,31.30
2022-09-07T15:17:43.857Z,30.30
2022-09-07T15:22:47.431Z,30.90
2022-09-07T15:27:52.445Z,28.90
2022-09-07T15:32:57.304Z,29.60
2022-09-07T15:38:02.368Z,31.50
2022-09-07T15:43:19.902Z,34.20
2022-09-07T15:48:25.631Z,35.10
2022-09-07T15:58:57.864Z,30.00
2022-09-07T16:04:01.710Z,29.40
2022-09-07T16:09:07.814Z,29.80
2022-09-07T16:14:13.778Z,30.70
2022-09-07T16:19:20.531Z,29.80
2022-09-07T16:24:24.180Z,29.80
2022-09-07T16:29:28.977Z,29.80
2022-09-07T16:34:32.243Z,30.00
2022-09-07T16:39:35.729Z,29.50
2022-09-07T16:44:40.423Z,29.10
2022-09-07T16:49:43.715Z,27.30
2022-09-07T16:54:47.086Z,28.80
2022-09-07T16:59:51.716Z,28.00
2022-09-07T17:04:54.945Z,27.40
2022-09-07T17:09:58.286Z,26.90
2022-09-07T17:15:03.146Z,26.60
2022-09-07T17:20:08.240Z,26.40
2022-09-07T17:25:14.032Z,26.20
2022-09-07T17:30:20.823Z,25.70
2022-09-07T17:35:26.248Z,25.50
2022-09-07T17:40:29.899Z,25.10
2022-09-07T17:45:36.642Z,25.10
2022-09-07T17:50:39.997Z,24.70
2022-09-07T17:55:46.076Z,24.40
2022-09-07T18:00:51.055Z,24.20
2022-09-07T18:05:55.209Z,23.90
2022-09-07T18:16:32.653Z,23.90
2022-09-07T18:21:38.134Z,23.60
2022-09-07T18:26:41.686Z,23.30
2022-09-07T18:31:46.397Z,23.10
2022-09-07T18:36:50.006Z,23.00
2022-09-07T18:41:54.507Z,22.90
2022-09-07T18:46:59.187Z,22.90
2022-09-07T18:57:25.956Z,22.70
2022-09-07T19:02:31.125Z,22.70
2022-09-07T19:07:34.456Z,22.70
2022-09-07T19:12:37.691Z,22.40
2022-09-07T19:17:42.283Z,22.20
2022-09-07T19:22:45.662Z,22.10
2022-09-07T19:27:48.907Z,22.00
2022-09-07T19:32:53.506Z,22.10
2022-09-07T19:37:56.944Z,22.00
2022-09-07T19:43:00.229Z,21.80
2022-09-07T19:48:05.003Z,21.80
2022-09-07T19:53:08.309Z,21.70
2022-09-07T19:58:12.284Z,21.60
2022-09-07T20:03:16.880Z,21.40
2022-09-07T20:08:20.104Z,21.60
2022-09-07T20:13:23.422Z,21.80
2022-09-07T20:18:28.559Z,21.70
2022-09-07T20:23:31.900Z,21.80
2022-09-07T20:28:35.925Z,21.90
2022-09-07T20:33:41.586Z,21.60
2022-09-07T20:38:46.611Z,21.70
2022-09-07T20:43:50.220Z,21.60
2022-09-07T20:48:54.867Z,21.60
2022-09-07T20:53:58.717Z,21.60
2022-09-07T20:59:03.858Z,21.50
2022-09-07T21:04:08.531Z,21.40
2022-09-07T21:09:11.753Z,21.50
2022-09-07T21:14:15.607Z,21.40
2022-09-07T21:19:20.292Z,21.30
2022-09-07T21:24:24.656Z,21.20
2022-09-07T21:29:27.859Z,21.30
2022-09-07T21:34:32.483Z,21.10
2022-09-07T21:39:35.818Z,21.00
2022-09-07T21:44:39.085Z,20.90
2022-09-07T21:49:44.636Z,20.80
2022-09-07T21:54:47.989Z,20.60
2022-09-07T21:59:51.298Z,20.40
2022-09-07T22:04:56.886Z,20.30
2022-09-07T22:10:01.497Z,20.30
2022-09-07T22:15:05.209Z,20.20
2022-09-07T22:20:11.977Z,20.10
2022-09-07T22:25:15.427Z,20.10
2022-09-07T22:30:18.791Z,20.00
2022-09-07T22:35:25.619Z,20.00
2022-09-07T22:40:28.858Z,19.90
2022-09-07T22:45:32.122Z,20.00
2022-09-07T22:50:36.687Z,20.00
2022-09-07T22:55:40.197Z,20.00
2022-09-07T23:00:45.215Z,20.10
2022-09-07T23:05:49.841Z,20.20
2022-09-07T23:10:53.322Z,20.30
2022-09-07T23:15:56.619Z,20.10
2022-09-07T23:21:01.602Z,20.40
2022-09-07T23:26:05.504Z,20.40
2022-09-07T23:31:11.779Z,20.00
2022-09-07T23:36:17.374Z,19.90
2022-09-07T23:41:20.681Z,19.60
2022-09-07T23:46:24.141Z,19.70
2022-09-07T23:51:28.822Z,19.70
2022-09-07T23:56:32.749Z,19.50
